• Join FlightAware (Why Join?)
  • Login
  • US Flag 
02:45AM EDT


 

Airport Tracker/Info


-or-


 

Live Flight TrackerFlight Track Log ✈ DAL6035 ✈ 19-May-2013 ✈ KBUF - KLGA

Flight Track Log - Related Links

Times and Time Zones

All times are in EDT time to prevent confusion due to time zone crossing. See the DAL6035 flight status page for this flight to view local times or setup timezone preferences in your user account.

Time Position Orientation Groundspeed Altitude Reporting Facility
EDT Latitude Longitude Course Direction KTS MPH feet Rate Location/Type
09:21AM 42.9333 -78.7500 97° East 157 181 1,300  Level Buffalo TRACON
09:22AM 42.9167 -78.7667 216° Southwest 155 178 2,700 1,800 Climbing Buffalo TRACON
09:23AM 42.8667 -78.7667 180° South 223 257 4,000 1,260 Climbing Buffalo TRACON
09:23AM 42.8561 -78.7367 116° Southeast 256 295 4,700 2,340 Climbing Cleveland Center
09:24AM 42.9102 -78.2852 98° East  Level FlightAware Approximate
09:24AM 42.8564 -78.6233 90° East 266 306 7,700  Level Cleveland Center
09:25AM 42.9000 -78.1384 90° East  Level FlightAware Approximate
09:25AM 42.8567 -78.5242 90° East 266 306 10,600  Level Cleveland Center
09:26AM 42.8875 -77.9917 98° East  Level FlightAware Approximate
09:26AM 42.8528 -78.4281 93° East 266 306 13,100  Level Cleveland Center
09:27AM 42.8735 -77.8452 97° East  Level FlightAware Approximate
09:27AM 42.8508 -78.3289 91° East 260 299 14,700  Level Cleveland Center
09:28AM 42.8506 -78.2128 90° East 275 316 15,000 120 Climbing Cleveland Center
09:29AM 42.8478 -78.0714 91° East 323 372 15,000  Level Cleveland Center
09:30AM 42.8428 -77.9414 93° East 354 407 15,000 540 Level Cleveland Center
09:31AM 42.8414 -77.7911 91° East 381 438 16,100 1,380 Climbing Cleveland Center
09:32AM 42.8356 -77.6414 93° East 387 445 17,800 1,680 Climbing Cleveland Center
09:33AM 42.8339 -77.4969 91° East 387 445 19,500 1,740 Climbing Cleveland Center
09:34AM 42.8300 -77.3556 92° East 382 440 21,300 1,800 Climbing Cleveland Center
09:35AM 42.8258 -77.2114 92° East 382 440 23,200 1,800 Climbing Cleveland Center
09:36AM 42.8214 -77.0672 92° East 382 440 24,900 780 Climbing Cleveland Center
09:38AM 42.8014 -76.8808 98° East 376 433 25,000  Climbing Boston Center
09:39AM 42.7681 -76.7200 106° East 408 470 25,000  Level Boston Center
09:40AM 42.7347 -76.5508 105° East 440 506 25,000  Level Boston Center
09:41AM 42.7028 -76.3875 105° East 452 520 25,000  Level Boston Center
09:42AM 42.6764 -76.2475 104° East 436 502 25,000  Level Boston Center
09:43AM 42.6453 -76.1156 108° East 431 496 25,000  Level Boston Center
09:44AM 42.6075 -75.9269 105° East 436 502 25,000  Level Boston Center
09:45AM 42.5747 -75.7644 105° East 441 507 25,000  Level Boston Center
09:46AM 42.5397 -75.6019 106° East 441 507 25,000  Level Boston Center
09:47AM 42.5067 -75.4369 105° East 441 507 25,000  Level Boston Center
09:48AM 42.4714 -75.2719 106° East 441 507 25,000  Level Boston Center
09:49AM 42.4231 -75.1206 113° Southeast 441 507 25,000  Level Boston Center
09:50AM 42.3661 -74.9664 117° Southeast 446 513 25,000 -600 Level Boston Center
09:51AM 42.3108 -74.8153 116° Southeast 446 513 23,900 -1,380 Descending Boston Center
09:52AM 42.2536 -74.6617 117° Southeast 453 521 22,300 -1,740 Descending Boston Center
09:53AM 42.2000 -74.5142 116° Southeast 448 516 20,500 -1,980 Descending Boston Center
09:54AM 42.1403 -74.3636 118° Southeast 425 489 18,400 -1,140 Descending Boston Center
09:55AM 42.0842 -74.2247 119° Southeast 398 458 18,000 -240 Descending Boston Center
09:56AM 42.0356 -74.1283 124° Southeast 362 417 18,000  Level Boston Center
09:57AM 41.9689 -73.9925 123° Southeast 354 407 18,000  Level Boston Center
09:58AM 41.8975 -73.8625 126° Southeast 361 415 18,000 -60 Level Boston Center
09:59AM 41.8083 -73.8214 161° South 344 396 17,900 -1,140 Descending Boston Center
10:00AM 41.7125 -73.8222 180° South 327 376 15,800 -1,980 Descending Boston Center
10:02AM 41.5667 -73.8500 188° South 305 351 12,600 -1,860 Descending New York TRACON
10:03AM 41.4833 -73.8667 189° South 294 338 11,000 -1,860 Descending New York TRACON
10:04AM 41.4167 -73.8667 180° South 285 328 9,100 -1,920 Descending New York TRACON
10:05AM 41.3500 -73.8000 143° Southeast 282 325 7,200 -1,740 Descending New York TRACON
10:06AM 41.2833 -73.7500 151° Southeast 265 305 5,700 -1,500 Descending New York TRACON
10:07AM 41.2333 -73.7000 143° Southeast 249 287 4,400 -960 Descending New York TRACON
10:07AM 41.1833 -73.6667 153° Southeast 233 268 4,000 -240 Descending New York TRACON
10:08AM 41.1333 -73.6167 143° Southeast 241 277 4,000  Level New York TRACON
10:09AM 41.0667 -73.6333 191° South 250 288 4,000  Level New York TRACON
10:10AM 41.0167 -73.6833 217° Southwest 221 254 4,000  Level New York TRACON
10:11AM 40.9833 -73.7167 217° Southwest 175 201 4,000 -360 Level New York TRACON
10:12AM 40.9333 -73.7500 207° Southwest 152 175 3,400 -600 Descending New York TRACON
10:13AM 40.9000 -73.7667 201° Southwest 157 181 2,800 -600 Descending New York TRACON